createdAt,value
2022-10-20T00:04:29.733Z,67.86
2022-10-20T00:06:56.064Z,67.65
2022-10-20T00:09:25.493Z,67.88
2022-10-20T00:11:54.270Z,67.60
2022-10-20T00:14:20.650Z,68.20
2022-10-20T00:17:41.338Z,68.01
2022-10-20T00:20:08.240Z,68.71
2022-10-20T00:22:34.727Z,67.95
2022-10-20T00:25:01.363Z,68.08
2022-10-20T00:27:27.760Z,68.03
2022-10-20T00:29:54.078Z,67.89
2022-10-20T00:32:20.608Z,67.88
2022-10-20T00:34:46.922Z,67.84
2022-10-20T00:37:13.445Z,67.80
2022-10-20T00:39:39.940Z,67.59
2022-10-20T00:42:06.293Z,67.68
2022-10-20T00:44:56.213Z,67.36
2022-10-20T00:47:39.130Z,67.88
2022-10-20T00:50:13.722Z,67.66
2022-10-20T00:52:42.689Z,67.61
2022-10-20T00:55:11.620Z,67.21
2022-10-20T00:57:38.884Z,67.35
2022-10-20T01:00:08.738Z,67.48
2022-10-20T01:02:36.213Z,67.72
2022-10-20T01:05:02.866Z,67.46
2022-10-20T01:07:29.292Z,67.71
2022-10-20T01:09:55.994Z,67.97
2022-10-20T01:12:32.804Z,67.61
2022-10-20T01:15:27.937Z,67.92
2022-10-20T01:18:03.648Z,67.90
2022-10-20T01:20:48.685Z,67.95
2022-10-20T01:23:34.554Z,67.78
2022-10-20T01:26:23.536Z,67.50
2022-10-20T01:29:08.660Z,67.33
2022-10-20T01:31:48.684Z,67.50
2022-10-20T01:34:20.909Z,67.71
2022-10-20T01:36:56.062Z,67.81
2022-10-20T01:39:33.857Z,68.20
2022-10-20T01:42:16.283Z,67.77
2022-10-20T01:44:43.838Z,68.29
2022-10-20T01:47:11.552Z,68.16
2022-10-20T01:49:38.091Z,68.92
2022-10-20T01:52:04.574Z,68.54
2022-10-20T01:54:30.907Z,68.67
2022-10-20T01:57:31.905Z,68.71
2022-10-20T02:00:14.737Z,68.99
2022-10-20T02:02:56.348Z,68.78
2022-10-20T02:05:53.117Z,68.71
2022-10-20T02:08:19.368Z,68.42
2022-10-20T02:10:49.400Z,68.61
2022-10-20T02:13:18.440Z,68.96
2022-10-20T02:15:50.131Z,68.41
2022-10-20T02:18:21.518Z,68.46
2022-10-20T02:20:51.519Z,68.55
2022-10-20T02:23:18.817Z,68.54
2022-10-20T02:25:51.714Z,68.68
2022-10-20T02:28:22.123Z,68.67
2022-10-20T02:30:48.686Z,68.80
2022-10-20T02:33:16.985Z,68.44
2022-10-20T02:35:51.503Z,68.36
2022-10-20T02:38:17.961Z,69.44
2022-10-20T02:40:44.758Z,69.03
2022-10-20T02:43:11.104Z,69.72
2022-10-20T02:45:37.534Z,70.34
2022-10-20T02:48:06.290Z,69.91
2022-10-20T02:50:34.204Z,69.89
2022-10-20T02:53:00.549Z,70.38
2022-10-20T02:55:26.848Z,69.88
2022-10-20T02:57:53.916Z,69.76
2022-10-20T03:00:20.675Z,69.69
2022-10-20T03:02:47.961Z,69.43
2022-10-20T03:05:14.639Z,68.98
2022-10-20T03:07:41.011Z,69.28
2022-10-20T03:10:08.857Z,69.29
2022-10-20T03:12:35.203Z,69.73
2022-10-20T03:15:01.542Z,69.77
2022-10-20T03:17:27.879Z,69.10
2022-10-20T03:19:54.183Z,69.46
2022-10-20T03:22:20.606Z,69.55
2022-10-20T03:24:46.940Z,69.91
2022-10-20T03:27:13.665Z,69.26
2022-10-20T03:29:39.979Z,69.16
2022-10-20T03:32:06.441Z,68.99
2022-10-20T03:34:32.958Z,69.21
2022-10-20T03:37:00.173Z,69.11
2022-10-20T03:39:26.556Z,68.92
2022-10-20T03:41:53.130Z,68.59
2022-10-20T03:44:19.461Z,69.06
2022-10-20T03:46:45.763Z,69.01
2022-10-20T03:49:12.169Z,68.82
2022-10-20T03:51:38.512Z,69.31
2022-10-20T03:54:04.848Z,70.65
2022-10-20T03:56:31.544Z,70.39
2022-10-20T03:58:57.968Z,70.77
2022-10-20T04:01:30.143Z,70.08
2022-10-20T04:03:56.541Z,69.98
2022-10-20T04:06:22.980Z,69.87
2022-10-20T04:08:49.420Z,69.35
2022-10-20T04:11:15.835Z,69.89
2022-10-20T04:13:42.193Z,69.81
2022-10-20T04:16:08.615Z,70.11
2022-10-20T04:18:34.996Z,70.58
2022-10-20T04:21:01.331Z,69.89
2022-10-20T04:23:27.688Z,69.91
2022-10-20T04:25:54.009Z,70.08
2022-10-20T04:28:21.137Z,70.06
2022-10-20T04:30:48.140Z,69.81
2022-10-20T04:33:14.889Z,70.24
2022-10-20T04:35:41.347Z,70.10
2022-10-20T04:38:08.211Z,70.18
2022-10-20T04:40:34.585Z,69.96
2022-10-20T04:43:03.699Z,70.70
2022-10-20T04:45:30.051Z,69.83
2022-10-20T04:47:56.425Z,69.80
2022-10-20T04:50:22.975Z,70.31
2022-10-20T04:52:49.571Z,69.81
2022-10-20T04:55:15.886Z,69.89
2022-10-20T04:57:42.259Z,69.82
2022-10-20T05:00:09.157Z,70.11
2022-10-20T05:02:35.508Z,70.10
2022-10-20T05:05:01.836Z,69.75
2022-10-20T05:07:30.310Z,69.80
2022-10-20T05:09:56.683Z,70.08
2022-10-20T05:12:23.098Z,69.92
2022-10-20T05:14:49.621Z,69.98
2022-10-20T05:17:15.991Z,69.54
2022-10-20T05:19:42.307Z,69.92
2022-10-20T05:22:08.633Z,70.17
2022-10-20T05:24:35.008Z,69.55
2022-10-20T05:27:01.349Z,69.53
2022-10-20T05:29:27.848Z,69.75
2022-10-20T05:31:54.168Z,69.76
2022-10-20T05:34:20.490Z,69.69
2022-10-20T05:36:46.791Z,69.31
2022-10-20T05:39:13.193Z,68.92
2022-10-20T05:41:39.631Z,69.39
2022-10-20T05:44:08.587Z,69.46
2022-10-20T05:46:42.901Z,69.89
2022-10-20T05:49:17.301Z,69.75
2022-10-20T05:51:45.349Z,70.25
2022-10-20T05:54:12.815Z,70.42
2022-10-20T05:56:39.254Z,69.97
2022-10-20T05:59:05.767Z,70.37
2022-10-20T06:01:40.279Z,70.23
2022-10-20T06:04:08.642Z,69.76
2022-10-20T06:06:36.021Z,69.99
2022-10-20T06:09:05.982Z,69.79
2022-10-20T06:11:35.915Z,69.51
2022-10-20T06:14:05.882Z,70.31
2022-10-20T06:16:32.725Z,69.66
2022-10-20T06:18:59.755Z,69.55
2022-10-20T06:21:29.281Z,69.55
2022-10-20T06:23:58.533Z,69.39
2022-10-20T06:26:29.395Z,69.37
2022-10-20T06:29:02.705Z,69.33
2022-10-20T06:31:33.601Z,69.52
2022-10-20T06:34:01.252Z,69.33
2022-10-20T06:36:28.168Z,69.50
2022-10-20T06:38:56.801Z,69.29
2022-10-20T06:41:24.426Z,69.90
2022-10-20T06:43:55.021Z,70.28
2022-10-20T06:46:21.320Z,71.03
2022-10-20T06:48:47.611Z,70.17
2022-10-20T06:51:16.495Z,70.71
2022-10-20T06:53:46.587Z,70.94
2022-10-20T06:56:16.668Z,71.68
2022-10-20T06:58:45.840Z,71.33
2022-10-20T07:01:17.938Z,71.21
2022-10-20T07:03:46.824Z,71.47
2022-10-20T07:06:19.271Z,70.92
2022-10-20T07:08:47.535Z,70.96
2022-10-20T07:11:16.900Z,70.29
2022-10-20T07:13:43.765Z,70.42
2022-10-20T07:16:13.193Z,69.89
2022-10-20T07:18:40.324Z,69.79
2022-10-20T07:21:12.947Z,69.75
2022-10-20T07:23:39.545Z,69.29
2022-10-20T07:26:15.353Z,69.10
2022-10-20T07:28:44.715Z,69.41
2022-10-20T07:31:17.737Z,69.20
2022-10-20T07:33:44.503Z,69.14
2022-10-20T07:36:23.917Z,69.15
2022-10-20T07:38:52.092Z,69.09
2022-10-20T07:41:18.462Z,68.82
2022-10-20T07:43:44.803Z,68.50
2022-10-20T07:46:12.576Z,68.26
2022-10-20T07:48:39.210Z,67.88
2022-10-20T07:51:17.017Z,67.25
2022-10-20T07:53:44.052Z,67.48
2022-10-20T07:56:10.697Z,67.33
2022-10-20T07:58:37.958Z,66.98
2022-10-20T08:01:05.483Z,66.84
2022-10-20T08:03:31.815Z,66.84
2022-10-20T08:05:58.600Z,67.20
2022-10-20T08:08:25.405Z,69.35
2022-10-20T08:10:55.854Z,72.78
2022-10-20T08:13:22.194Z,74.84
2022-10-20T08:15:54.470Z,75.96
2022-10-20T08:18:21.363Z,75.56
2022-10-20T08:20:47.715Z,74.24
2022-10-20T08:23:14.836Z,74.08
2022-10-20T08:25:41.598Z,74.19
2022-10-20T08:28:08.441Z,74.90
2022-10-20T08:30:35.032Z,74.83
2022-10-20T08:33:01.836Z,74.76
2022-10-20T08:35:28.540Z,74.65
2022-10-20T08:37:54.992Z,74.60
2022-10-20T08:40:25.805Z,74.76
2022-10-20T08:42:52.911Z,74.19
2022-10-20T08:45:21.950Z,74.37
2022-10-20T08:47:52.046Z,74.81
2022-10-20T08:50:19.690Z,74.36
2022-10-20T08:52:50.808Z,73.92
2022-10-20T08:55:25.203Z,73.69
2022-10-20T08:57:51.908Z,73.36
2022-10-20T09:00:23.201Z,73.14
2022-10-20T09:02:51.049Z,73.51
2022-10-20T09:05:23.878Z,73.83
2022-10-20T09:07:51.980Z,74.85
2022-10-20T09:10:35.769Z,74.97
2022-10-20T09:13:06.460Z,75.71
2022-10-20T09:15:32.876Z,75.17
2022-10-20T09:18:06.549Z,74.09
2022-10-20T09:20:45.701Z,73.59
2022-10-20T09:23:35.501Z,75.11
2022-10-20T09:26:01.759Z,74.65
2022-10-20T09:28:34.775Z,75.64
2022-10-20T09:31:31.422Z,75.54
2022-10-20T09:33:57.766Z,75.38
2022-10-20T09:36:29.872Z,75.67
2022-10-20T09:38:56.874Z,75.63
2022-10-20T09:41:32.106Z,75.70
2022-10-20T09:44:01.446Z,76.69
2022-10-20T09:46:37.476Z,76.66
2022-10-20T09:49:06.090Z,76.47
2022-10-20T09:51:32.618Z,76.01
2022-10-20T09:54:03.421Z,75.96
2022-10-20T09:56:40.237Z,75.39
2022-10-20T09:59:19.093Z,75.13
2022-10-20T10:02:22.730Z,74.93
2022-10-20T10:04:51.721Z,74.46
2022-10-20T10:07:27.331Z,74.23
2022-10-20T10:09:57.343Z,74.59
2022-10-20T10:12:26.391Z,74.91
2022-10-20T10:14:59.434Z,74.90
2022-10-20T10:17:40.800Z,74.58
2022-10-20T10:20:39.755Z,74.47
2022-10-20T10:23:19.116Z,74.26
2022-10-20T10:25:46.137Z,74.19
2022-10-20T10:28:42.098Z,73.71
2022-10-20T10:31:23.593Z,73.21
2022-10-20T10:34:20.768Z,73.30
2022-10-20T10:36:47.177Z,73.82
2022-10-20T10:39:15.848Z,74.14
2022-10-20T10:42:40.241Z,74.19
2022-10-20T10:45:18.288Z,73.84
2022-10-20T10:48:19.078Z,73.61
2022-10-20T10:50:59.942Z,73.21
2022-10-20T10:53:50.347Z,73.07
2022-10-20T10:56:45.074Z,73.47
2022-10-20T10:59:24.679Z,73.11
2022-10-20T11:02:24.866Z,72.10
2022-10-20T11:07:48.428Z,70.29
2022-10-20T11:10:36.504Z,69.19
2022-10-20T11:13:11.883Z,68.64
2022-10-20T11:16:01.266Z,67.60
2022-10-20T11:18:56.378Z,67.70
2022-10-20T11:21:39.544Z,67.02
2022-10-20T11:24:27.003Z,66.63
2022-10-20T11:27:01.739Z,66.09
2022-10-20T11:29:35.998Z,66.62
2022-10-20T11:32:08.824Z,67.18
2022-10-20T11:34:52.718Z,67.92
2022-10-20T11:37:27.494Z,67.80
2022-10-20T11:40:09.066Z,67.91
2022-10-20T11:42:40.506Z,68.10
2022-10-20T11:45:24.263Z,69.16
2022-10-20T11:48:04.361Z,69.63
2022-10-20T11:50:32.168Z,70.02
2022-10-20T11:53:17.066Z,69.63
2022-10-20T11:55:52.722Z,69.89
2022-10-20T11:58:58.117Z,69.75
2022-10-20T12:01:35.262Z,69.66
2022-10-20T12:04:15.611Z,69.14
2022-10-20T12:06:57.868Z,69.46
2022-10-20T12:09:33.220Z,69.04
2022-10-20T12:12:07.951Z,68.25
2022-10-20T12:14:40.968Z,66.79
2022-10-20T12:17:16.449Z,66.60
2022-10-20T12:19:42.902Z,65.95
2022-10-20T12:22:15.187Z,65.59
2022-10-20T12:24:54.832Z,65.46
2022-10-20T12:27:27.642Z,64.95
2022-10-20T12:29:55.937Z,64.49
2022-10-20T12:32:24.139Z,63.86
2022-10-20T12:35:01.976Z,63.67
2022-10-20T12:37:34.718Z,63.27
2022-10-20T12:40:07.388Z,63.27
2022-10-20T12:42:38.406Z,63.47
2022-10-20T12:45:37.993Z,63.68
2022-10-20T12:48:05.752Z,63.12
2022-10-20T12:50:45.133Z,62.90
2022-10-20T12:53:17.981Z,63.15
2022-10-20T12:55:48.155Z,62.83
2022-10-20T12:58:17.702Z,62.45
2022-10-20T13:00:47.048Z,62.37
2022-10-20T13:03:49.469Z,61.68
2022-10-20T13:06:30.074Z,62.36
2022-10-20T13:09:10.485Z,62.12
2022-10-20T13:11:40.603Z,62.51
2022-10-20T13:14:13.089Z,62.59
2022-10-20T13:17:16.397Z,63.16
2022-10-20T13:20:01.389Z,62.90
2022-10-20T13:22:52.957Z,62.96
2022-10-20T13:25:50.076Z,63.10
2022-10-20T13:28:23.491Z,62.67
2022-10-20T13:30:49.737Z,63.10
2022-10-20T13:33:34.438Z,64.10
2022-10-20T13:36:42.438Z,63.89
2022-10-20T13:39:30.733Z,64.04
2022-10-20T13:42:26.431Z,64.36
2022-10-20T13:45:07.763Z,64.08
2022-10-20T13:48:06.455Z,63.92
2022-10-20T13:50:36.562Z,63.94
2022-10-20T13:53:20.636Z,63.91
2022-10-20T13:55:57.779Z,64.05
2022-10-20T13:58:25.333Z,64.50
2022-10-20T14:01:24.433Z,65.41
2022-10-20T14:03:51.472Z,64.98
2022-10-20T14:06:26.756Z,64.80
2022-10-20T14:08:54.850Z,65.05
2022-10-20T14:11:21.826Z,65.45
2022-10-20T14:13:48.645Z,65.14
2022-10-20T14:16:22.730Z,64.72
2022-10-20T14:19:03.238Z,65.38
2022-10-20T14:21:29.615Z,65.08
2022-10-20T14:24:02.765Z,64.44
2022-10-20T14:26:29.536Z,64.70
2022-10-20T14:28:56.207Z,64.72
2022-10-20T14:31:24.281Z,64.24
2022-10-20T14:33:52.244Z,63.96
2022-10-20T14:39:01.149Z,64.09
2022-10-20T14:41:33.520Z,64.37
2022-10-20T14:44:08.916Z,64.58
2022-10-20T14:46:45.029Z,64.56
2022-10-20T14:49:17.840Z,63.83
2022-10-20T14:52:18.955Z,64.29
2022-10-20T14:54:51.772Z,64.28
2022-10-20T14:57:18.392Z,64.57
2022-10-20T15:00:22.680Z,64.51
2022-10-20T15:02:56.350Z,64.78
2022-10-20T15:05:26.143Z,64.18
2022-10-20T15:07:55.610Z,64.38
2022-10-20T15:10:26.861Z,64.40
2022-10-20T15:12:56.648Z,64.38
2022-10-20T15:15:27.604Z,64.30
2022-10-20T15:18:10.432Z,64.93
2022-10-20T15:20:39.349Z,65.20
2022-10-20T15:23:23.464Z,64.90
2022-10-20T15:26:04.337Z,64.71
2022-10-20T15:28:38.488Z,65.03
2022-10-20T15:31:18.980Z,64.93
2022-10-20T15:33:46.303Z,65.02
2022-10-20T15:36:15.451Z,65.32
2022-10-20T15:38:42.878Z,65.35
2022-10-20T15:41:14.066Z,65.21
2022-10-20T15:43:40.385Z,65.32
2022-10-20T15:46:10.972Z,66.11
2022-10-20T15:48:37.550Z,66.07
2022-10-20T15:51:04.736Z,66.13
2022-10-20T15:53:31.054Z,66.71
2022-10-20T15:55:57.381Z,66.63
2022-10-20T15:58:23.687Z,66.29
2022-10-20T16:00:50.028Z,65.95
2022-10-20T16:03:18.355Z,66.37
2022-10-20T16:05:46.359Z,66.21
2022-10-20T16:08:12.967Z,66.39
2022-10-20T16:10:39.761Z,66.05
2022-10-20T16:13:06.140Z,65.85
2022-10-20T16:15:32.742Z,65.98
2022-10-20T16:17:59.274Z,65.81
2022-10-20T16:20:25.622Z,66.12
2022-10-20T16:22:52.406Z,65.95
2022-10-20T16:25:18.898Z,66.35
2022-10-20T16:27:45.286Z,66.28
2022-10-20T16:30:11.708Z,66.69
2022-10-20T16:32:38.587Z,66.87
2022-10-20T16:35:06.127Z,66.50
2022-10-20T16:37:33.093Z,66.33
2022-10-20T16:40:01.147Z,66.41
2022-10-20T16:42:30.086Z,67.09
2022-10-20T16:44:57.208Z,67.25
2022-10-20T16:47:25.279Z,67.27
2022-10-20T16:49:51.771Z,67.13
2022-10-20T16:52:18.164Z,67.15
2022-10-20T16:54:44.697Z,67.20
2022-10-20T16:57:12.650Z,67.16
2022-10-20T16:59:39.626Z,67.20
2022-10-20T17:02:06.239Z,67.33
2022-10-20T17:04:33.505Z,67.44
2022-10-20T17:06:59.859Z,67.27
2022-10-20T17:09:26.422Z,67.37
2022-10-20T17:11:52.774Z,67.08
2022-10-20T17:14:19.359Z,67.14
2022-10-20T17:16:47.176Z,67.70
2022-10-20T17:19:13.633Z,67.54
2022-10-20T17:21:40.138Z,66.93
2022-10-20T17:24:11.241Z,67.35
2022-10-20T17:26:38.271Z,67.39
2022-10-20T17:29:05.019Z,67.85
2022-10-20T17:31:31.905Z,67.36
2022-10-20T17:33:59.050Z,67.97
2022-10-20T17:36:26.686Z,68.04
2022-10-20T17:38:56.227Z,67.96
2022-10-20T17:41:22.820Z,68.08
2022-10-20T17:43:49.352Z,67.86
2022-10-20T17:46:18.098Z,67.85
2022-10-20T17:48:45.712Z,67.95
2022-10-20T17:51:20.515Z,68.66
2022-10-20T17:53:50.815Z,68.73
2022-10-20T17:56:18.736Z,68.63
2022-10-20T17:58:46.908Z,68.44
2022-10-20T18:01:23.446Z,68.73
2022-10-20T18:03:56.962Z,68.87
2022-10-20T18:06:25.683Z,69.18
2022-10-20T18:08:57.701Z,69.28
2022-10-20T18:11:29.911Z,69.41
2022-10-20T18:13:59.291Z,69.50
2022-10-20T18:16:27.202Z,69.75
2022-10-20T18:19:02.608Z,69.97
2022-10-20T18:21:30.577Z,70.44
2022-10-20T18:24:02.326Z,70.17
2022-10-20T18:26:31.112Z,70.16
2022-10-20T18:28:59.263Z,71.10
2022-10-20T18:31:30.990Z,70.80
2022-10-20T18:34:10.922Z,70.66
2022-10-20T18:36:43.557Z,70.60
2022-10-20T18:39:13.049Z,70.74
2022-10-20T18:41:41.079Z,70.69
2022-10-20T18:44:12.445Z,71.30
2022-10-20T18:46:39.800Z,71.87
2022-10-20T18:49:07.990Z,71.62
2022-10-20T18:51:35.506Z,71.53
2022-10-20T18:54:05.962Z,72.35
2022-10-20T18:56:35.891Z,72.32
2022-10-20T18:59:08.227Z,71.57
2022-10-20T19:01:37.552Z,71.47
2022-10-20T19:04:05.090Z,72.13
2022-10-20T19:06:34.834Z,72.71
2022-10-20T19:09:07.003Z,73.07
2022-10-20T19:11:35.259Z,73.05
2022-10-20T19:14:02.179Z,74.96
2022-10-20T19:16:31.383Z,75.33
2022-10-20T19:18:59.708Z,76.05
2022-10-20T19:21:28.128Z,76.61
2022-10-20T19:24:01.942Z,75.56
2022-10-20T19:26:34.453Z,75.12
2022-10-20T19:29:05.150Z,74.85
2022-10-20T19:31:44.537Z,74.45
2022-10-20T19:34:23.214Z,74.54
2022-10-20T19:36:49.689Z,73.91
2022-10-20T19:39:21.595Z,74.69
2022-10-20T19:41:48.640Z,76.94
2022-10-20T19:44:15.511Z,78.53
2022-10-20T19:46:47.119Z,78.43
2022-10-20T19:49:14.456Z,77.20
2022-10-20T19:51:41.294Z,76.45
2022-10-20T19:54:08.273Z,76.54
2022-10-20T19:56:35.514Z,76.07
2022-10-20T19:59:02.732Z,75.40
2022-10-20T20:01:29.276Z,75.24
2022-10-20T20:03:55.737Z,75.35
2022-10-20T20:06:22.688Z,74.89
2022-10-20T20:08:56.851Z,75.66
2022-10-20T20:11:23.851Z,75.93
2022-10-20T20:13:53.120Z,75.52
2022-10-20T20:16:20.727Z,75.06
2022-10-20T20:18:50.304Z,77.16
2022-10-20T20:21:17.296Z,77.43
2022-10-20T20:23:58.798Z,77.33
2022-10-20T20:26:30.615Z,76.71
2022-10-20T20:28:57.845Z,76.60
2022-10-20T20:31:24.993Z,76.17
2022-10-20T20:33:52.161Z,75.64
2022-10-20T20:36:18.879Z,76.01
2022-10-20T20:38:45.566Z,75.98
2022-10-20T20:41:17.664Z,75.03
2022-10-20T20:43:47.466Z,75.23
2022-10-20T20:46:16.586Z,74.85
2022-10-20T20:48:43.767Z,75.34
2022-10-20T20:51:11.581Z,75.22
2022-10-20T20:53:39.212Z,75.33
2022-10-20T20:56:08.221Z,75.64
2022-10-20T20:58:34.734Z,75.60
2022-10-20T21:01:22.740Z,75.36
2022-10-20T21:03:57.169Z,74.94
2022-10-20T21:06:33.148Z,74.96
2022-10-20T21:08:59.983Z,75.09
2022-10-20T21:11:27.161Z,74.95
2022-10-20T21:13:55.976Z,74.89
2022-10-20T21:16:25.788Z,74.97
2022-10-20T21:18:54.825Z,75.29
2022-10-20T21:21:26.959Z,75.35
2022-10-20T21:23:54.380Z,75.44
2022-10-20T21:26:24.659Z,75.54
2022-10-20T21:28:50.999Z,75.62
2022-10-20T21:31:19.804Z,75.63
2022-10-20T21:33:50.062Z,75.29
2022-10-20T21:36:17.766Z,75.72
2022-10-20T21:38:44.162Z,75.50
2022-10-20T21:41:19.335Z,76.53
2022-10-20T21:43:57.221Z,76.68
2022-10-20T21:46:33.895Z,76.37
2022-10-20T21:49:05.664Z,75.73
2022-10-20T21:51:37.891Z,75.99
2022-10-20T21:54:18.163Z,75.78
2022-10-20T21:56:46.799Z,75.84
2022-10-20T21:59:39.650Z,75.46
2022-10-20T22:02:13.238Z,75.13
2022-10-20T22:04:39.710Z,75.12
2022-10-20T22:07:06.036Z,75.02
2022-10-20T22:09:32.457Z,75.01
2022-10-20T22:11:59.452Z,75.08
2022-10-20T22:14:26.220Z,75.26
2022-10-20T22:16:52.686Z,75.15
2022-10-20T22:19:22.474Z,74.64
2022-10-20T22:21:51.253Z,74.84
2022-10-20T22:24:18.642Z,74.80
2022-10-20T22:26:45.926Z,74.71
2022-10-20T22:29:14.553Z,74.71
2022-10-20T22:31:41.222Z,74.88
2022-10-20T22:34:08.899Z,74.63
2022-10-20T22:36:35.658Z,74.46
2022-10-20T22:39:02.353Z,74.63
2022-10-20T22:41:28.827Z,74.16
2022-10-20T22:43:55.185Z,74.36
2022-10-20T22:46:21.615Z,74.51
2022-10-20T22:48:48.183Z,74.32
2022-10-20T22:51:15.386Z,74.44
2022-10-20T22:53:42.351Z,74.23
2022-10-20T22:56:22.287Z,74.30
2022-10-20T22:58:49.260Z,74.51
2022-10-20T23:01:18.903Z,73.93
2022-10-20T23:03:46.323Z,75.04
2022-10-20T23:06:15.681Z,75.07
2022-10-20T23:08:44.756Z,74.90
2022-10-20T23:11:11.783Z,75.15
2022-10-20T23:13:38.695Z,74.70
2022-10-20T23:16:05.600Z,74.56
2022-10-20T23:18:32.202Z,74.19
2022-10-20T23:20:58.705Z,74.40
2022-10-20T23:23:25.423Z,74.94
2022-10-20T23:25:52.286Z,75.33
2022-10-20T23:28:20.018Z,75.21
2022-10-20T23:30:46.810Z,74.70
2022-10-20T23:33:13.485Z,74.90
2022-10-20T23:35:40.134Z,75.19
2022-10-20T23:38:09.779Z,74.90
2022-10-20T23:40:36.377Z,74.78
2022-10-20T23:43:02.974Z,75.71
2022-10-20T23:45:30.921Z,75.97
2022-10-20T23:48:00.399Z,75.58
2022-10-20T23:50:26.802Z,75.02
2022-10-20T23:52:53.245Z,75.03
2022-10-20T23:55:20.348Z,74.94
2022-10-20T23:57:48.778Z,74.89
